sensor_id;sensor_type;location;lat;lon;timestamp;temperature;humidity
24664;DHT22;12791;50.992;13.788;2024-01-10T00:00:59;-6.60;77.30
24664;DHT22;12791;50.992;13.788;2024-01-10T00:03:25;-7.00;76.20
24664;DHT22;12791;50.992;13.788;2024-01-10T00:05:52;-7.00;76.80
24664;DHT22;12791;50.992;13.788;2024-01-10T00:08:19;-7.10;76.30
24664;DHT22;12791;50.992;13.788;2024-01-10T00:10:45;-7.20;76.50
24664;DHT22;12791;50.992;13.788;2024-01-10T00:13:12;-6.80;76.70
24664;DHT22;12791;50.992;13.788;2024-01-10T00:15:40;-7.00;76.40
24664;DHT22;12791;50.992;13.788;2024-01-10T00:18:07;-7.30;76.30
24664;DHT22;12791;50.992;13.788;2024-01-10T00:20:33;-7.30;76.50
24664;DHT22;12791;50.992;13.788;2024-01-10T00:23:00;-7.30;76.70
24664;DHT22;12791;50.992;13.788;2024-01-10T00:25:26;-7.20;76.90
24664;DHT22;12791;50.992;13.788;2024-01-10T00:27:53;-7.30;76.10
24664;DHT22;12791;50.992;13.788;2024-01-10T00:30:21;-7.70;75.60
24664;DHT22;12791;50.992;13.788;2024-01-10T00:32:49;-7.20;76.00
24664;DHT22;12791;50.992;13.788;2024-01-10T00:35:15;-7.40;76.00
24664;DHT22;12791;50.992;13.788;2024-01-10T00:37:41;-7.20;76.70
24664;DHT22;12791;50.992;13.788;2024-01-10T00:40:08;-7.20;76.90
24664;DHT22;12791;50.992;13.788;2024-01-10T00:42:36;-7.20;76.40
24664;DHT22;12791;50.992;13.788;2024-01-10T00:45:03;-7.40;75.90
24664;DHT22;12791;50.992;13.788;2024-01-10T00:47:30;-7.50;76.20
24664;DHT22;12791;50.992;13.788;2024-01-10T00:49:58;-7.50;76.60
24664;DHT22;12791;50.992;13.788;2024-01-10T00:52:24;-7.20;76.60
24664;DHT22;12791;50.992;13.788;2024-01-10T00:54:51;-7.40;76.10
24664;DHT22;12791;50.992;13.788;2024-01-10T00:57:18;-7.50;76.10
24664;DHT22;12791;50.992;13.788;2024-01-10T00:59:44;-7.40;76.10
24664;DHT22;12791;50.992;13.788;2024-01-10T01:02:11;-7.60;76.30
24664;DHT22;12791;50.992;13.788;2024-01-10T01:04:37;-7.70;75.40
24664;DHT22;12791;50.992;13.788;2024-01-10T01:07:05;-7.50;75.60
24664;DHT22;12791;50.992;13.788;2024-01-10T01:09:33;-7.40;75.40
24664;DHT22;12791;50.992;13.788;2024-01-10T01:12:00;-7.70;74.60
24664;DHT22;12791;50.992;13.788;2024-01-10T01:14:26;-7.50;75.00
24664;DHT22;12791;50.992;13.788;2024-01-10T01:16:53;-7.80;74.80
24664;DHT22;12791;50.992;13.788;2024-01-10T01:19:20;-7.00;75.10
24664;DHT22;12791;50.992;13.788;2024-01-10T01:21:46;-8.00;74.70
24664;DHT22;12791;50.992;13.788;2024-01-10T01:24:14;-7.20;75.10
24664;DHT22;12791;50.992;13.788;2024-01-10T01:26:41;-7.70;75.00
24664;DHT22;12791;50.992;13.788;2024-01-10T01:29:07;-8.10;74.50
24664;DHT22;12791;50.992;13.788;2024-01-10T01:31:34;-8.00;74.30
24664;DHT22;12791;50.992;13.788;2024-01-10T01:34:02;-7.30;74.90
24664;DHT22;12791;50.992;13.788;2024-01-10T01:36:29;-7.60;74.40
24664;DHT22;12791;50.992;13.788;2024-01-10T01:38:55;-7.50;74.80
24664;DHT22;12791;50.992;13.788;2024-01-10T01:41:23;-7.60;75.20
24664;DHT22;12791;50.992;13.788;2024-01-10T01:43:50;-7.60;75.00
24664;DHT22;12791;50.992;13.788;2024-01-10T01:46:17;-8.00;74.60
24664;DHT22;12791;50.992;13.788;2024-01-10T01:48:44;-7.40;75.20
24664;DHT22;12791;50.992;13.788;2024-01-10T01:51:12;-7.10;75.40
24664;DHT22;12791;50.992;13.788;2024-01-10T01:53:42;-7.40;75.20
24664;DHT22;12791;50.992;13.788;2024-01-10T01:56:11;-7.30;75.20
24664;DHT22;12791;50.992;13.788;2024-01-10T01:58:40;-7.90;74.90
24664;DHT22;12791;50.992;13.788;2024-01-10T02:01:07;-8.10;74.40
24664;DHT22;12791;50.992;13.788;2024-01-10T02:03:34;-7.50;74.80
24664;DHT22;12791;50.992;13.788;2024-01-10T02:06:00;-7.50;74.80
24664;DHT22;12791;50.992;13.788;2024-01-10T02:08:28;-8.10;74.60
24664;DHT22;12791;50.992;13.788;2024-01-10T02:10:55;-7.30;75.80
24664;DHT22;12791;50.992;13.788;2024-01-10T02:13:22;-7.80;74.90
24664;DHT22;12791;50.992;13.788;2024-01-10T02:15:51;-7.30;76.10
24664;DHT22;12791;50.992;13.788;2024-01-10T02:18:18;-8.00;75.10
24664;DHT22;12791;50.992;13.788;2024-01-10T02:20:45;-7.70;75.70
24664;DHT22;12791;50.992;13.788;2024-01-10T02:23:12;-8.10;75.20
24664;DHT22;12791;50.992;13.788;2024-01-10T02:25:40;-7.70;75.40
24664;DHT22;12791;50.992;13.788;2024-01-10T02:28:07;-7.70;75.40
24664;DHT22;12791;50.992;13.788;2024-01-10T02:30:34;-7.80;75.40
24664;DHT22;12791;50.992;13.788;2024-01-10T02:33:01;-8.10;75.20
24664;DHT22;12791;50.992;13.788;2024-01-10T02:35:28;-7.50;75.50
24664;DHT22;12791;50.992;13.788;2024-01-10T02:37:56;-7.70;75.60
24664;DHT22;12791;50.992;13.788;2024-01-10T02:40:22;-7.60;75.40
24664;DHT22;12791;50.992;13.788;2024-01-10T02:42:50;-8.10;74.90
24664;DHT22;12791;50.992;13.788;2024-01-10T02:45:17;-8.10;74.90
24664;DHT22;12791;50.992;13.788;2024-01-10T02:47:45;-7.80;75.10
24664;DHT22;12791;50.992;13.788;2024-01-10T02:50:11;-7.50;75.70
24664;DHT22;12791;50.992;13.788;2024-01-10T02:52:38;-8.10;74.90
24664;DHT22;12791;50.992;13.788;2024-01-10T02:55:05;-7.80;75.20
24664;DHT22;12791;50.992;13.788;2024-01-10T02:57:32;-7.40;75.50
24664;DHT22;12791;50.992;13.788;2024-01-10T03:00:00;-7.60;75.50
24664;DHT22;12791;50.992;13.788;2024-01-10T03:02:26;-7.40;75.30
24664;DHT22;12791;50.992;13.788;2024-01-10T03:04:53;-8.20;74.30
24664;DHT22;12791;50.992;13.788;2024-01-10T03:07:19;-8.10;74.60
24664;DHT22;12791;50.992;13.788;2024-01-10T03:09:46;-7.60;74.70
24664;DHT22;12791;50.992;13.788;2024-01-10T03:12:12;-7.10;75.10
24664;DHT22;12791;50.992;13.788;2024-01-10T03:14:39;-7.80;74.50
24664;DHT22;12791;50.992;13.788;2024-01-10T03:17:07;-7.70;75.40
24664;DHT22;12791;50.992;13.788;2024-01-10T03:19:34;-7.60;75.80
24664;DHT22;12791;50.992;13.788;2024-01-10T03:22:02;-7.50;75.90
24664;DHT22;12791;50.992;13.788;2024-01-10T03:24:29;-7.80;75.90
24664;DHT22;12791;50.992;13.788;2024-01-10T03:26:56;-7.80;76.50
24664;DHT22;12791;50.992;13.788;2024-01-10T03:29:22;-7.70;76.50
24664;DHT22;12791;50.992;13.788;2024-01-10T03:31:49;-7.50;76.00
24664;DHT22;12791;50.992;13.788;2024-01-10T03:34:17;-7.20;76.30
24664;DHT22;12791;50.992;13.788;2024-01-10T03:36:44;-7.80;75.10
24664;DHT22;12791;50.992;13.788;2024-01-10T03:39:10;-7.50;75.60
24664;DHT22;12791;50.992;13.788;2024-01-10T03:41:37;-7.80;75.10
24664;DHT22;12791;50.992;13.788;2024-01-10T03:44:04;-7.80;75.50
24664;DHT22;12791;50.992;13.788;2024-01-10T03:46:31;-7.40;75.90
24664;DHT22;12791;50.992;13.788;2024-01-10T03:48:57;-8.30;75.00
24664;DHT22;12791;50.992;13.788;2024-01-10T03:51:25;-7.90;75.30
24664;DHT22;12791;50.992;13.788;2024-01-10T03:53:53;-7.70;75.50
24664;DHT22;12791;50.992;13.788;2024-01-10T03:56:20;-8.20;75.20
24664;DHT22;12791;50.992;13.788;2024-01-10T03:58:47;-7.60;75.50
24664;DHT22;12791;50.992;13.788;2024-01-10T04:01:14;-7.90;75.80
24664;DHT22;12791;50.992;13.788;2024-01-10T04:03:41;-7.80;75.10
24664;DHT22;12791;50.992;13.788;2024-01-10T04:06:08;-7.70;74.90
24664;DHT22;12791;50.992;13.788;2024-01-10T04:08:36;-7.80;74.80
24664;DHT22;12791;50.992;13.788;2024-01-10T04:11:03;-8.10;74.30
24664;DHT22;12791;50.992;13.788;2024-01-10T04:13:30;-7.80;74.90
24664;DHT22;12791;50.992;13.788;2024-01-10T04:15:56;-7.40;75.00
24664;DHT22;12791;50.992;13.788;2024-01-10T04:18:23;-7.80;74.50
24664;DHT22;12791;50.992;13.788;2024-01-10T04:20:49;-7.70;74.70
24664;DHT22;12791;50.992;13.788;2024-01-10T04:23:16;-7.50;74.70
24664;DHT22;12791;50.992;13.788;2024-01-10T04:25:44;-7.60;73.90
24664;DHT22;12791;50.992;13.788;2024-01-10T04:28:10;-7.40;74.20
24664;DHT22;12791;50.992;13.788;2024-01-10T04:30:37;-7.30;73.80
24664;DHT22;12791;50.992;13.788;2024-01-10T04:33:04;-7.30;73.60
24664;DHT22;12791;50.992;13.788;2024-01-10T04:35:31;-7.70;73.30
24664;DHT22;12791;50.992;13.788;2024-01-10T04:37:58;-7.30;73.10
24664;DHT22;12791;50.992;13.788;2024-01-10T04:40:24;-7.70;72.80
24664;DHT22;12791;50.992;13.788;2024-01-10T04:42:52;-7.90;72.90
24664;DHT22;12791;50.992;13.788;2024-01-10T04:45:19;-7.50;73.90
24664;DHT22;12791;50.992;13.788;2024-01-10T04:47:45;-8.00;73.50
24664;DHT22;12791;50.992;13.788;2024-01-10T04:50:12;-7.50;74.20
24664;DHT22;12791;50.992;13.788;2024-01-10T04:52:39;-8.00;74.50
24664;DHT22;12791;50.992;13.788;2024-01-10T04:55:06;-7.60;74.10
24664;DHT22;12791;50.992;13.788;2024-01-10T04:57:33;-7.60;73.10
24664;DHT22;12791;50.992;13.788;2024-01-10T05:00:01;-7.60;72.90
24664;DHT22;12791;50.992;13.788;2024-01-10T05:02:28;-7.60;73.50
24664;DHT22;12791;50.992;13.788;2024-01-10T05:04:54;-7.90;73.80
24664;DHT22;12791;50.992;13.788;2024-01-10T05:07:21;-7.90;74.10
24664;DHT22;12791;50.992;13.788;2024-01-10T05:09:48;-7.40;74.70
24664;DHT22;12791;50.992;13.788;2024-01-10T05:12:14;-7.60;74.70
24664;DHT22;12791;50.992;13.788;2024-01-10T05:14:41;-8.40;74.30
24664;DHT22;12791;50.992;13.788;2024-01-10T05:17:09;-7.40;75.00
24664;DHT22;12791;50.992;13.788;2024-01-10T05:19:35;-7.80;75.10
24664;DHT22;12791;50.992;13.788;2024-01-10T05:22:02;-7.90;75.40
24664;DHT22;12791;50.992;13.788;2024-01-10T05:24:30;-7.80;75.80
24664;DHT22;12791;50.992;13.788;2024-01-10T05:26:56;-7.40;75.70
24664;DHT22;12791;50.992;13.788;2024-01-10T05:29:23;-7.60;75.80
24664;DHT22;12791;50.992;13.788;2024-01-10T05:31:51;-7.70;74.90
24664;DHT22;12791;50.992;13.788;2024-01-10T05:34:19;-7.60;75.60
24664;DHT22;12791;50.992;13.788;2024-01-10T05:36:45;-7.70;75.50
24664;DHT22;12791;50.992;13.788;2024-01-10T05:39:12;-7.80;75.60
24664;DHT22;12791;50.992;13.788;2024-01-10T05:41:41;-8.00;75.50
24664;DHT22;12791;50.992;13.788;2024-01-10T05:44:09;-7.70;75.10
24664;DHT22;12791;50.992;13.788;2024-01-10T05:46:35;-7.70;74.80
24664;DHT22;12791;50.992;13.788;2024-01-10T05:49:02;-7.50;75.10
24664;DHT22;12791;50.992;13.788;2024-01-10T05:51:31;-7.60;75.40
24664;DHT22;12791;50.992;13.788;2024-01-10T05:53:57;-7.80;74.80
24664;DHT22;12791;50.992;13.788;2024-01-10T05:56:24;-7.70;74.80
24664;DHT22;12791;50.992;13.788;2024-01-10T05:58:51;-7.30;74.90
24664;DHT22;12791;50.992;13.788;2024-01-10T06:01:17;-7.80;74.50
24664;DHT22;12791;50.992;13.788;2024-01-10T06:03:44;-8.00;74.40
24664;DHT22;12791;50.992;13.788;2024-01-10T06:06:10;-7.60;74.60
24664;DHT22;12791;50.992;13.788;2024-01-10T06:08:38;-7.80;74.10
24664;DHT22;12791;50.992;13.788;2024-01-10T06:11:05;-7.40;74.80
24664;DHT22;12791;50.992;13.788;2024-01-10T06:13:34;-7.80;74.50
24664;DHT22;12791;50.992;13.788;2024-01-10T06:16:00;-7.80;74.20
24664;DHT22;12791;50.992;13.788;2024-01-10T06:18:28;-7.40;74.50
24664;DHT22;12791;50.992;13.788;2024-01-10T06:20:54;-8.30;73.50
24664;DHT22;12791;50.992;13.788;2024-01-10T06:23:21;-7.70;74.60
24664;DHT22;12791;50.992;13.788;2024-01-10T06:25:49;-8.20;74.60
24664;DHT22;12791;50.992;13.788;2024-01-10T06:28:15;-8.40;73.50
24664;DHT22;12791;50.992;13.788;2024-01-10T06:30:42;-7.80;74.80
24664;DHT22;12791;50.992;13.788;2024-01-10T06:33:09;-7.90;74.40
24664;DHT22;12791;50.992;13.788;2024-01-10T06:35:35;-7.60;75.80
24664;DHT22;12791;50.992;13.788;2024-01-10T06:38:02;-8.00;75.70
24664;DHT22;12791;50.992;13.788;2024-01-10T06:40:29;-8.10;75.90
24664;DHT22;12791;50.992;13.788;2024-01-10T06:42:57;-7.50;76.00
24664;DHT22;12791;50.992;13.788;2024-01-10T06:45:24;-8.30;75.20
24664;DHT22;12791;50.992;13.788;2024-01-10T06:47:50;-7.60;75.90
24664;DHT22;12791;50.992;13.788;2024-01-10T06:50:17;-7.80;75.80
24664;DHT22;12791;50.992;13.788;2024-01-10T06:52:45;-8.30;74.80
24664;DHT22;12791;50.992;13.788;2024-01-10T06:55:12;-8.30;74.50
24664;DHT22;12791;50.992;13.788;2024-01-10T06:57:39;-8.20;75.20
24664;DHT22;12791;50.992;13.788;2024-01-10T07:00:08;-8.30;76.00
24664;DHT22;12791;50.992;13.788;2024-01-10T07:02:36;-7.90;76.10
24664;DHT22;12791;50.992;13.788;2024-01-10T07:05:05;-7.90;75.10
24664;DHT22;12791;50.992;13.788;2024-01-10T07:07:33;-7.80;75.10
24664;DHT22;12791;50.992;13.788;2024-01-10T07:10:00;-8.00;74.40
24664;DHT22;12791;50.992;13.788;2024-01-10T07:12:30;-7.80;74.60
24664;DHT22;12791;50.992;13.788;2024-01-10T07:14:57;-8.40;74.70
24664;DHT22;12791;50.992;13.788;2024-01-10T07:17:25;-7.80;75.70
24664;DHT22;12791;50.992;13.788;2024-01-10T07:19:51;-7.70;76.40
24664;DHT22;12791;50.992;13.788;2024-01-10T07:22:18;-8.50;76.00
24664;DHT22;12791;50.992;13.788;2024-01-10T07:24:45;-7.50;76.50
24664;DHT22;12791;50.992;13.788;2024-01-10T07:27:12;-8.40;75.30
24664;DHT22;12791;50.992;13.788;2024-01-10T07:29:40;-8.00;75.60
24664;DHT22;12791;50.992;13.788;2024-01-10T07:32:07;-7.60;75.90
24664;DHT22;12791;50.992;13.788;2024-01-10T07:34:37;-7.90;76.00
24664;DHT22;12791;50.992;13.788;2024-01-10T07:37:04;-7.90;76.50
24664;DHT22;12791;50.992;13.788;2024-01-10T07:39:31;-7.60;76.70
24664;DHT22;12791;50.992;13.788;2024-01-10T07:41:57;-8.40;75.80
24664;DHT22;12791;50.992;13.788;2024-01-10T07:44:26;-7.50;76.00
24664;DHT22;12791;50.992;13.788;2024-01-10T07:46:53;-7.90;75.70
24664;DHT22;12791;50.992;13.788;2024-01-10T07:49:20;-7.80;76.60
24664;DHT22;12791;50.992;13.788;2024-01-10T07:51:50;-7.90;77.20
24664;DHT22;12791;50.992;13.788;2024-01-10T07:54:17;-8.00;77.90
24664;DHT22;12791;50.992;13.788;2024-01-10T07:56:43;-7.80;79.30
24664;DHT22;12791;50.992;13.788;2024-01-10T07:59:10;-7.40;80.00
24664;DHT22;12791;50.992;13.788;2024-01-10T08:01:40;-7.30;79.80
24664;DHT22;12791;50.992;13.788;2024-01-10T08:04:06;-8.10;80.10
24664;DHT22;12791;50.992;13.788;2024-01-10T08:06:33;-7.80;80.60
24664;DHT22;12791;50.992;13.788;2024-01-10T08:09:01;-7.20;81.70
24664;DHT22;12791;50.992;13.788;2024-01-10T08:11:29;-7.20;81.00
24664;DHT22;12791;50.992;13.788;2024-01-10T08:13:56;-7.10;81.80
24664;DHT22;12791;50.992;13.788;2024-01-10T08:16:23;-7.30;82.40
24664;DHT22;12791;50.992;13.788;2024-01-10T08:18:49;-7.30;82.90
24664;DHT22;12791;50.992;13.788;2024-01-10T08:21:16;-7.10;84.00
24664;DHT22;12791;50.992;13.788;2024-01-10T08:23:41;-6.80;84.90
24664;DHT22;12791;50.992;13.788;2024-01-10T08:26:10;-7.00;84.50
24664;DHT22;12791;50.992;13.788;2024-01-10T08:28:37;-6.70;84.60
24664;DHT22;12791;50.992;13.788;2024-01-10T08:31:04;-6.60;84.50
24664;DHT22;12791;50.992;13.788;2024-01-10T08:33:30;-7.30;84.00
24664;DHT22;12791;50.992;13.788;2024-01-10T08:35:57;-6.70;84.30
24664;DHT22;12791;50.992;13.788;2024-01-10T08:38:24;-6.60;85.00
24664;DHT22;12791;50.992;13.788;2024-01-10T08:40:50;-6.50;84.90
24664;DHT22;12791;50.992;13.788;2024-01-10T08:43:18;-6.60;85.20
24664;DHT22;12791;50.992;13.788;2024-01-10T08:45:45;-6.40;84.80
24664;DHT22;12791;50.992;13.788;2024-01-10T08:48:12;-6.20;84.80
24664;DHT22;12791;50.992;13.788;2024-01-10T08:50:38;-6.10;83.80
24664;DHT22;12791;50.992;13.788;2024-01-10T08:53:05;-6.10;82.30
24664;DHT22;12791;50.992;13.788;2024-01-10T08:55:32;-5.90;81.50
24664;DHT22;12791;50.992;13.788;2024-01-10T08:57:59;-5.90;79.30
24664;DHT22;12791;50.992;13.788;2024-01-10T09:00:27;-5.80;78.30
24664;DHT22;12791;50.992;13.788;2024-01-10T09:02:54;-5.80;78.00
24664;DHT22;12791;50.992;13.788;2024-01-10T09:05:21;-5.40;77.30
24664;DHT22;12791;50.992;13.788;2024-01-10T09:07:48;-5.10;75.70
24664;DHT22;12791;50.992;13.788;2024-01-10T09:10:16;-5.20;76.10
24664;DHT22;12791;50.992;13.788;2024-01-10T09:12:42;-5.10;76.70
24664;DHT22;12791;50.992;13.788;2024-01-10T09:15:11;-5.40;76.60
24664;DHT22;12791;50.992;13.788;2024-01-10T09:17:41;-5.10;75.00
24664;DHT22;12791;50.992;13.788;2024-01-10T09:20:08;-5.30;74.80
24664;DHT22;12791;50.992;13.788;2024-01-10T09:22:35;-5.00;74.80
24664;DHT22;12791;50.992;13.788;2024-01-10T09:25:03;-4.70;74.90
24664;DHT22;12791;50.992;13.788;2024-01-10T09:27:31;-5.10;74.30
24664;DHT22;12791;50.992;13.788;2024-01-10T09:29:59;-4.60;73.70
24664;DHT22;12791;50.992;13.788;2024-01-10T09:32:27;-4.60;72.00
24664;DHT22;12791;50.992;13.788;2024-01-10T09:34:55;-5.00;69.70
24664;DHT22;12791;50.992;13.788;2024-01-10T09:37:22;-4.60;69.10
24664;DHT22;12791;50.992;13.788;2024-01-10T09:39:49;-4.30;67.60
24664;DHT22;12791;50.992;13.788;2024-01-10T09:42:15;-4.30;66.90
24664;DHT22;12791;50.992;13.788;2024-01-10T09:44:42;-4.20;65.10
24664;DHT22;12791;50.992;13.788;2024-01-10T09:47:09;-4.30;63.60
24664;DHT22;12791;50.992;13.788;2024-01-10T09:49:35;-3.80;62.90
24664;DHT22;12791;50.992;13.788;2024-01-10T09:52:05;-4.20;62.50
24664;DHT22;12791;50.992;13.788;2024-01-10T09:54:38;-4.20;62.30
24664;DHT22;12791;50.992;13.788;2024-01-10T09:57:06;-4.10;60.60
24664;DHT22;12791;50.992;13.788;2024-01-10T09:59:33;-4.40;59.70
24664;DHT22;12791;50.992;13.788;2024-01-10T10:02:03;-3.60;59.90
24664;DHT22;12791;50.992;13.788;2024-01-10T10:04:30;-3.00;59.20
24664;DHT22;12791;50.992;13.788;2024-01-10T10:07:00;-3.00;59.40
24664;DHT22;12791;50.992;13.788;2024-01-10T10:09:29;-3.10;59.70
24664;DHT22;12791;50.992;13.788;2024-01-10T10:11:56;-3.00;59.60
24664;DHT22;12791;50.992;13.788;2024-01-10T10:14:24;-3.40;59.00
24664;DHT22;12791;50.992;13.788;2024-01-10T10:16:54;-2.90;59.10
24664;DHT22;12791;50.992;13.788;2024-01-10T10:19:24;-3.00;56.70
24664;DHT22;12791;50.992;13.788;2024-01-10T10:21:51;-2.50;56.00
24664;DHT22;12791;50.992;13.788;2024-01-10T10:24:18;-3.10;54.30
24664;DHT22;12791;50.992;13.788;2024-01-10T10:26:45;-2.40;54.80
24664;DHT22;12791;50.992;13.788;2024-01-10T10:29:12;-2.60;54.00
24664;DHT22;12791;50.992;13.788;2024-01-10T10:31:39;-2.60;52.70
24664;DHT22;12791;50.992;13.788;2024-01-10T10:34:05;-2.70;52.30
24664;DHT22;12791;50.992;13.788;2024-01-10T10:36:33;-2.60;50.40
24664;DHT22;12791;50.992;13.788;2024-01-10T10:39:00;-3.20;49.50
24664;DHT22;12791;50.992;13.788;2024-01-10T10:41:31;-3.10;50.70
24664;DHT22;12791;50.992;13.788;2024-01-10T10:44:00;-3.10;50.50
24664;DHT22;12791;50.992;13.788;2024-01-10T10:46:27;-2.40;50.80
24664;DHT22;12791;50.992;13.788;2024-01-10T10:48:59;-2.50;50.60
24664;DHT22;12791;50.992;13.788;2024-01-10T10:51:33;-2.40;50.80
24664;DHT22;12791;50.992;13.788;2024-01-10T10:54:00;-2.30;50.40
24664;DHT22;12791;50.992;13.788;2024-01-10T10:56:29;-2.30;50.30
24664;DHT22;12791;50.992;13.788;2024-01-10T10:58:58;-2.40;49.90
24664;DHT22;12791;50.992;13.788;2024-01-10T11:01:26;-2.40;49.80
24664;DHT22;12791;50.992;13.788;2024-01-10T11:03:55;-2.60;48.80
24664;DHT22;12791;50.992;13.788;2024-01-10T11:06:22;-1.80;50.00
24664;DHT22;12791;50.992;13.788;2024-01-10T11:08:52;-2.30;50.20
24664;DHT22;12791;50.992;13.788;2024-01-10T11:11:29;-2.50;49.50
24664;DHT22;12791;50.992;13.788;2024-01-10T11:14:12;-1.60;50.80
24664;DHT22;12791;50.992;13.788;2024-01-10T11:17:00;-2.00;50.00
24664;DHT22;12791;50.992;13.788;2024-01-10T11:20:04;-2.30;50.00
24664;DHT22;12791;50.992;13.788;2024-01-10T11:22:49;-1.80;49.80
24664;DHT22;12791;50.992;13.788;2024-01-10T11:25:20;-1.70;50.10
24664;DHT22;12791;50.992;13.788;2024-01-10T11:27:51;-1.70;50.30
24664;DHT22;12791;50.992;13.788;2024-01-10T11:30:33;-2.00;50.40
24664;DHT22;12791;50.992;13.788;2024-01-10T11:33:01;-2.00;50.00
24664;DHT22;12791;50.992;13.788;2024-01-10T11:35:28;-2.00;49.80
24664;DHT22;12791;50.992;13.788;2024-01-10T11:37:59;-1.10;50.60
24664;DHT22;12791;50.992;13.788;2024-01-10T11:40:45;-1.60;49.60
24664;DHT22;12791;50.992;13.788;2024-01-10T11:43:12;-1.60;49.60
24664;DHT22;12791;50.992;13.788;2024-01-10T11:45:50;-1.30;49.70
24664;DHT22;12791;50.992;13.788;2024-01-10T11:48:19;-1.20;50.20
24664;DHT22;12791;50.992;13.788;2024-01-10T11:50:52;-1.70;49.20
24664;DHT22;12791;50.992;13.788;2024-01-10T11:53:37;-1.10;49.20
24664;DHT22;12791;50.992;13.788;2024-01-10T11:56:09;-1.10;49.60
24664;DHT22;12791;50.992;13.788;2024-01-10T11:58:52;-0.80;49.20
24664;DHT22;12791;50.992;13.788;2024-01-10T12:01:21;-1.00;48.90
24664;DHT22;12791;50.992;13.788;2024-01-10T12:03:51;-1.30;47.60
24664;DHT22;12791;50.992;13.788;2024-01-10T12:06:20;-1.30;47.80
24664;DHT22;12791;50.992;13.788;2024-01-10T12:08:47;-1.20;47.80
24664;DHT22;12791;50.992;13.788;2024-01-10T12:11:14;-1.20;47.80
24664;DHT22;12791;50.992;13.788;2024-01-10T12:13:42;-1.20;47.40
24664;DHT22;12791;50.992;13.788;2024-01-10T12:16:11;-0.70;47.60
24664;DHT22;12791;50.992;13.788;2024-01-10T12:18:39;-1.10;46.90
24664;DHT22;12791;50.992;13.788;2024-01-10T12:21:06;-0.40;47.10
24664;DHT22;12791;50.992;13.788;2024-01-10T12:23:34;-1.00;46.20
24664;DHT22;12791;50.992;13.788;2024-01-10T12:26:01;-0.40;47.00
24664;DHT22;12791;50.992;13.788;2024-01-10T12:28:28;-0.60;46.70
24664;DHT22;12791;50.992;13.788;2024-01-10T12:30:55;-0.50;46.40
24664;DHT22;12791;50.992;13.788;2024-01-10T12:33:22;-0.70;46.20
24664;DHT22;12791;50.992;13.788;2024-01-10T12:36:04;-0.20;46.80
24664;DHT22;12791;50.992;13.788;2024-01-10T12:38:32;-0.30;45.60
24664;DHT22;12791;50.992;13.788;2024-01-10T12:40:59;-0.50;45.40
24664;DHT22;12791;50.992;13.788;2024-01-10T12:43:26;-0.20;45.40
24664;DHT22;12791;50.992;13.788;2024-01-10T12:46:02;-0.40;45.20
24664;DHT22;12791;50.992;13.788;2024-01-10T12:48:30;0.10;44.60
24664;DHT22;12791;50.992;13.788;2024-01-10T12:50:57;0.10;45.00
24664;DHT22;12791;50.992;13.788;2024-01-10T12:53:27;0.00;44.80
24664;DHT22;12791;50.992;13.788;2024-01-10T12:55:54;0.20;45.00
24664;DHT22;12791;50.992;13.788;2024-01-10T12:58:21;0.10;44.90
24664;DHT22;12791;50.992;13.788;2024-01-10T13:00:48;0.00;44.10
24664;DHT22;12791;50.992;13.788;2024-01-10T13:03:15;0.10;44.40
24664;DHT22;12791;50.992;13.788;2024-01-10T13:05:42;0.10;44.10
24664;DHT22;12791;50.992;13.788;2024-01-10T13:08:09;-0.10;43.70
24664;DHT22;12791;50.992;13.788;2024-01-10T13:10:38;0.30;43.50
24664;DHT22;12791;50.992;13.788;2024-01-10T13:13:05;-0.30;43.20
24664;DHT22;12791;50.992;13.788;2024-01-10T13:15:32;-0.20;43.50
24664;DHT22;12791;50.992;13.788;2024-01-10T13:17:58;0.30;44.30
24664;DHT22;12791;50.992;13.788;2024-01-10T13:20:25;0.30;44.70
24664;DHT22;12791;50.992;13.788;2024-01-10T13:22:53;0.40;44.60
24664;DHT22;12791;50.992;13.788;2024-01-10T13:25:19;0.40;44.60
24664;DHT22;12791;50.992;13.788;2024-01-10T13:27:49;0.40;44.80
24664;DHT22;12791;50.992;13.788;2024-01-10T13:30:17;0.30;44.50
24664;DHT22;12791;50.992;13.788;2024-01-10T13:32:44;0.00;43.70
24664;DHT22;12791;50.992;13.788;2024-01-10T13:35:12;0.70;44.70
24664;DHT22;12791;50.992;13.788;2024-01-10T13:37:39;0.40;44.30
24664;DHT22;12791;50.992;13.788;2024-01-10T13:40:07;0.40;44.30
24664;DHT22;12791;50.992;13.788;2024-01-10T13:42:34;0.30;44.50
24664;DHT22;12791;50.992;13.788;2024-01-10T13:45:04;0.50;44.30
24664;DHT22;12791;50.992;13.788;2024-01-10T13:47:31;0.40;44.30
24664;DHT22;12791;50.992;13.788;2024-01-10T13:49:58;0.00;43.50
24664;DHT22;12791;50.992;13.788;2024-01-10T13:52:24;0.90;44.20
24664;DHT22;12791;50.992;13.788;2024-01-10T13:54:51;-0.10;43.40
24664;DHT22;12791;50.992;13.788;2024-01-10T13:57:18;0.10;43.90
24664;DHT22;12791;50.992;13.788;2024-01-10T13:59:45;0.30;44.10
24664;DHT22;12791;50.992;13.788;2024-01-10T14:02:14;0.40;44.10
24664;DHT22;12791;50.992;13.788;2024-01-10T14:04:41;0.10;44.00
24664;DHT22;12791;50.992;13.788;2024-01-10T14:07:08;0.50;45.10
24664;DHT22;12791;50.992;13.788;2024-01-10T14:09:35;0.70;44.80
24664;DHT22;12791;50.992;13.788;2024-01-10T14:12:01;0.40;44.80
24664;DHT22;12791;50.992;13.788;2024-01-10T14:14:28;0.40;44.60
24664;DHT22;12791;50.992;13.788;2024-01-10T14:16:54;0.40;44.70
24664;DHT22;12791;50.992;13.788;2024-01-10T14:19:22;0.30;44.90
24664;DHT22;12791;50.992;13.788;2024-01-10T14:21:49;0.30;45.00
24664;DHT22;12791;50.992;13.788;2024-01-10T14:24:15;0.40;45.00
24664;DHT22;12791;50.992;13.788;2024-01-10T14:26:42;0.30;45.10
24664;DHT22;12791;50.992;13.788;2024-01-10T14:29:09;0.20;45.00
24664;DHT22;12791;50.992;13.788;2024-01-10T14:31:36;0.10;45.30
24664;DHT22;12791;50.992;13.788;2024-01-10T14:34:03;0.30;45.30
24664;DHT22;12791;50.992;13.788;2024-01-10T14:36:31;0.70;46.10
24664;DHT22;12791;50.992;13.788;2024-01-10T14:38:57;0.30;45.90
24664;DHT22;12791;50.992;13.788;2024-01-10T14:41:24;0.30;45.90
24664;DHT22;12791;50.992;13.788;2024-01-10T14:43:51;-0.10;46.00
24664;DHT22;12791;50.992;13.788;2024-01-10T14:46:17;0.20;46.30
24664;DHT22;12791;50.992;13.788;2024-01-10T14:48:44;-0.20;46.00
24664;DHT22;12791;50.992;13.788;2024-01-10T14:51:10;0.10;46.30
24664;DHT22;12791;50.992;13.788;2024-01-10T14:53:38;-0.30;46.50
24664;DHT22;12791;50.992;13.788;2024-01-10T14:56:05;0.20;46.20
24664;DHT22;12791;50.992;13.788;2024-01-10T14:58:32;-0.50;45.90
24664;DHT22;12791;50.992;13.788;2024-01-10T15:00:58;-0.30;46.10
24664;DHT22;12791;50.992;13.788;2024-01-10T15:03:25;0.00;46.50
24664;DHT22;12791;50.992;13.788;2024-01-10T15:05:52;-0.20;46.40
24664;DHT22;12791;50.992;13.788;2024-01-10T15:08:19;0.00;47.10
24664;DHT22;12791;50.992;13.788;2024-01-10T15:10:47;-0.20;47.00
24664;DHT22;12791;50.992;13.788;2024-01-10T15:13:14;-0.60;46.80
24664;DHT22;12791;50.992;13.788;2024-01-10T15:15:43;-0.20;47.30
24664;DHT22;12791;50.992;13.788;2024-01-10T15:18:10;-0.60;47.00
24664;DHT22;12791;50.992;13.788;2024-01-10T15:20:36;-0.10;47.60